Time;durP1;ratioP1;P1;durP2;ratioP2;P2;SDS_P1;SDS_P2;PMS_P1;PMS_P2;Temp;Humidity;BMP_temperature;BMP_pressure;BME280_temperature;BME280_humidity;BME280_pressure;Samples;Min_cycle;Max_cycle;Signal;HPM_P1;HPM_P2
2021/09/05 00:00:35;;;;;;;22.23;20.10;;;;;;;9.50;100.00;99555.16;2072350;28;20746;-75
2021/09/05 00:01:37;;;;;;;23.33;19.30;;;;;;;9.49;100.00;99555.44;2080200;28;20216;-75
2021/09/05 00:02:37;;;;;;;21.38;19.25;;;;;;;9.48;100.00;99552.00;2072637;28;20220;-75
2021/09/05 00:03:39;;;;;;;21.50;19.50;;;;;;;9.46;100.00;99556.78;2072919;28;20234;-75
2021/09/05 00:04:43;;;;;;;22.00;20.00;;;;;;;9.47;100.00;99553.06;2072851;28;20243;-75
2021/09/05 00:05:45;;;;;;;22.15;19.88;;;;;;;9.45;100.00;99557.06;2073138;28;20243;-75
2021/09/05 00:06:46;;;;;;;22.27;19.92;;;;;;;9.42;100.00;99550.44;2072935;28;20745;-75
2021/09/05 00:07:48;;;;;;;21.83;19.73;;;;;;;9.43;100.00;99554.69;2072787;28;20240;-75
2021/09/05 00:08:49;;;;;;;24.90;19.63;;;;;;;9.41;100.00;99550.72;2072666;28;20302;-75
2021/09/05 00:09:50;;;;;;;22.87;20.13;;;;;;;9.40;100.00;99549.13;2080094;28;20230;-76
2021/09/05 00:10:53;;;;;;;21.60;19.60;;;;;;;9.37;100.00;99553.09;2080643;28;20575;-75
2021/09/05 00:11:56;;;;;;;22.40;20.30;;;;;;;9.35;100.00;99557.91;2072364;28;20581;-75
2021/09/05 00:12:57;;;;;;;22.17;20.05;;;;;;;9.34;100.00;99556.34;2072684;28;20686;-76
2021/09/05 00:13:58;;;;;;;22.03;19.90;;;;;;;9.33;100.00;99562.72;2072543;28;20593;-75
2021/09/05 00:14:59;;;;;;;22.05;19.73;;;;;;;9.32;100.00;99558.47;2071808;28;20224;-75
2021/09/05 00:16:01;;;;;;;21.53;19.63;;;;;;;9.30;100.00;99561.41;2071281;28;20226;-75
2021/09/05 00:17:03;;;;;;;22.67;20.50;;;;;;;9.30;100.00;99556.09;2064284;28;20241;-75
2021/09/05 00:18:05;;;;;;;22.48;20.13;;;;;;;9.28;100.00;99554.75;2063891;28;20228;-75
2021/09/05 00:19:06;;;;;;;22.67;20.45;;;;;;;9.27;100.00;99559.28;2072478;28;20757;-75
2021/09/05 00:20:09;;;;;;;21.70;19.60;;;;;;;9.28;100.00;99552.09;2072244;28;20220;-75
2021/09/05 00:21:11;;;;;;;21.80;19.60;;;;;;;9.27;100.00;99561.16;2072218;28;20231;-75
2021/09/05 00:22:13;;;;;;;22.00;20.00;;;;;;;9.25;100.00;99558.78;2072302;28;20239;-75
2021/09/05 00:23:14;;;;;;;20.60;18.73;;;;;;;9.25;100.00;99558.78;2073099;28;20754;-75
2021/09/05 00:24:16;;;;;;;21.63;19.70;;;;;;;9.23;100.00;99560.91;2073445;28;20626;-75
2021/09/05 00:25:17;;;;;;;20.70;18.90;;;;;;;9.21;100.00;99562.25;2079988;28;20223;-75
2021/09/05 00:26:19;;;;;;;21.77;19.63;;;;;;;9.21;100.00;99565.72;2080452;28;20269;-75
2021/09/05 00:27:22;;;;;;;21.70;19.48;;;;;;;9.18;100.00;99560.94;2072618;28;20252;-75
2021/09/05 00:28:23;;;;;;;21.43;19.60;;;;;;;9.18;100.00;99565.47;2072730;28;20223;-75
2021/09/05 00:29:25;;;;;;;21.00;18.95;;;;;;;9.17;100.00;99566.53;2080484;28;20227;-76
2021/09/05 00:30:27;;;;;;;21.27;19.27;;;;;;;9.16;100.00;99562.28;2080253;28;20751;-75
2021/09/05 00:31:29;;;;;;;21.13;19.10;;;;;;;9.12;100.00;99567.38;2073019;28;20248;-75
2021/09/05 00:32:34;;;;;;;21.25;19.42;;;;;;;9.14;100.00;99567.09;2072867;28;20295;-75
2021/09/05 00:33:34;;;;;;;22.48;20.58;;;;;;;9.12;100.00;99563.88;2072667;28;20243;-75
2021/09/05 00:34:38;;;;;;;23.08;21.08;;;;;;;9.11;100.00;99564.97;2071759;28;20231;-76
2021/09/05 00:35:41;;;;;;;24.42;22.15;;;;;;;9.09;100.00;99559.91;2072284;28;20318;-75
2021/09/05 00:36:44;;;;;;;23.85;21.48;;;;;;;9.09;100.00;99559.91;2071918;28;20228;-75
2021/09/05 00:37:46;;;;;;;23.73;21.52;;;;;;;9.10;100.00;99561.50;2063589;28;20220;-75
2021/09/05 00:38:57;;;;;;;23.87;21.67;;;;;;;9.07;100.00;99560.19;2071970;28;20228;-75
2021/09/05 00:39:58;;;;;;;23.77;21.35;;;;;;;9.04;100.00;99562.63;2079571;28;20766;-75
2021/09/05 00:41:00;;;;;;;22.03;19.93;;;;;;;9.04;100.00;99566.06;2080163;28;20224;-75
2021/09/05 00:42:00;;;;;;;22.83;20.63;;;;;;;9.02;100.00;99559.41;2080446;28;20763;-75
2021/09/05 00:43:02;;;;;;;23.17;20.87;;;;;;;8.98;100.00;99559.16;2080295;28;20642;-76
2021/09/05 00:44:04;;;;;;;22.38;20.42;;;;;;;8.97;100.00;99562.91;2072702;28;20219;-75
2021/09/05 00:45:07;;;;;;;21.70;19.90;;;;;;;8.94;100.00;99555.44;2071796;28;20243;-75
2021/09/05 00:46:09;;;;;;;22.60;20.63;;;;;;;8.92;100.00;99562.13;2071681;28;20227;-75
2021/09/05 00:47:11;;;;;;;21.67;19.70;;;;;;;8.92;100.00;99557.59;2080353;28;20231;-75
2021/09/05 00:48:12;;;;;;;23.77;21.48;;;;;;;8.90;100.00;99564.25;2071938;28;20294;-75
2021/09/05 00:49:14;;;;;;;23.00;20.73;;;;;;;8.88;100.00;99564.53;2072261;28;20224;-75
2021/09/05 00:50:15;;;;;;;23.10;20.90;;;;;;;8.87;100.00;99565.63;2072895;28;20231;-75
2021/09/05 00:51:17;;;;;;;22.80;20.57;;;;;;;8.86;100.00;99561.38;2072670;28;20227;-75
2021/09/05 00:52:20;;;;;;;24.75;20.73;;;;;;;8.85;100.00;99559.75;2071585;28;20224;-75
2021/09/05 00:53:21;;;;;;;23.55;21.27;;;;;;;8.84;100.00;99563.47;2063626;28;20340;-75
2021/09/05 00:54:23;;;;;;;22.63;20.73;;;;;;;8.86;100.00;99565.84;2071535;28;20319;-75
2021/09/05 00:55:24;;;;;;;22.92;20.73;;;;;;;8.83;100.00;99561.88;2072640;28;20706;-76
2021/09/05 00:56:36;;;;;;;22.40;20.42;;;;;;;8.81;100.00;99565.91;2072906;28;20584;-75
2021/09/05 00:57:38;;;;;;;22.77;20.48;;;;;;;8.79;100.00;99566.19;2071779;28;20232;-75
2021/09/05 00:58:42;;;;;;;22.40;20.40;;;;;;;8.77;100.00;99565.63;2063805;28;20227;-75
2021/09/05 00:59:48;;;;;;;23.23;21.02;;;;;;;8.76;100.00;99558.72;2072650;28;20231;-76
2021/09/05 01:00:51;;;;;;;22.88;20.73;;;;;;;8.75;100.00;99567.78;2071861;28;20220;-75
2021/09/05 01:01:56;;;;;;;23.98;21.58;;;;;;;8.75;100.00;99567.78;2071632;28;20286;-75
2021/09/05 01:02:57;;;;;;;23.70;21.27;;;;;;;8.74;100.00;99572.28;2072589;28;20232;-76
2021/09/05 01:03:58;;;;;;;24.03;21.70;;;;;;;8.75;100.00;99573.09;2071796;28;20220;-75
2021/09/05 01:04:59;;;;;;;23.00;20.77;;;;;;;8.73;100.00;99570.69;2063622;28;20221;-75
2021/09/05 01:06:01;;;;;;;25.00;22.30;;;;;;;8.72;100.00;99568.31;2071971;28;20299;-75
2021/09/05 01:07:04;;;;;;;22.42;20.42;;;;;;;8.71;100.00;99569.38;2079777;28;20302;-75
2021/09/05 01:08:07;;;;;;;24.90;21.07;;;;;;;8.72;100.00;99570.97;2072434;28;20227;-75
2021/09/05 01:09:08;;;;;;;24.02;21.35;;;;;;;8.69;100.00;99567.00;2079318;28;20239;-75
2021/09/05 01:10:12;;;;;;;23.50;21.27;;;;;;;8.68;100.00;99573.38;2071905;28;20311;-75
2021/09/05 01:11:13;;;;;;;26.45;21.88;;;;;;;8.69;100.00;99582.97;2071973;28;20282;-75
2021/09/05 01:12:15;;;;;;;23.67;21.17;;;;;;;8.65;100.00;99570.47;2071707;28;20271;-75
2021/09/05 01:13:15;;;;;;;24.10;21.73;;;;;;;8.66;100.00;99577.38;2071737;28;20228;-75
2021/09/05 01:14:19;;;;;;;26.15;22.30;;;;;;;8.65;100.00;99581.09;2071971;28;20274;-75
2021/09/05 01:15:21;;;;;;;28.30;22.27;;;;;;;8.61;100.00;99583.50;2071654;28;20387;-75
2021/09/05 01:16:25;;;;;;;25.70;21.63;;;;;;;8.63;100.00;99585.91;2079249;28;20235;-75
2021/09/05 01:17:29;;;;;;;28.38;22.38;;;;;;;8.60;100.00;99578.44;2072196;28;20219;-75
2021/09/05 01:19:06;;;;;;;24.70;22.13;;;;;;;8.59;100.00;99587.50;2071583;28;20303;-75
2021/09/05 01:20:26;;;;;;;25.98;22.50;;;;;;;8.59;100.00;99584.84;2071602;28;20231;-74
2021/09/05 01:21:47;;;;;;;26.30;22.88;;;;;;;8.56;100.00;99582.72;2071747;28;20571;-75
2021/09/05 01:23:10;;;;;;;24.77;22.08;;;;;;;8.57;100.00;99589.63;2071209;28;20250;-75
2021/09/05 01:24:38;;;;;;;26.13;23.27;;;;;;;8.54;100.00;99590.19;2071870;28;20220;-75
2021/09/05 01:26:18;;;;;;;27.90;23.10;;;;;;;8.54;100.00;99585.66;2071482;28;20228;-74
2021/09/05 01:27:59;;;;;;;25.40;22.75;;;;;;;8.50;100.00;99584.59;2047516;28;20234;-75
2021/09/05 01:29:17;;;;;;;27.02;23.70;;;;;;;8.51;100.00;99586.16;2048240;28;20225;-75
2021/09/05 01:30:39;;;;;;;28.90;22.80;;;;;;;8.49;100.00;99585.66;2047414;28;20226;-75
2021/09/05 01:32:16;;;;;;;26.00;22.77;;;;;;;8.50;100.00;99601.34;2040919;29;20227;-75
2021/09/05 01:33:38;;;;;;;26.33;23.58;;;;;;;8.47;100.00;99588.59;2055267;28;20235;-75
2021/09/05 01:35:10;;;;;;;25.23;22.55;;;;;;;8.46;100.00;99597.63;2072320;28;20263;-75
2021/09/05 01:36:31;;;;;;;26.45;23.27;;;;;;;8.47;100.00;99595.75;2072882;28;20286;-75
2021/09/05 01:37:59;;;;;;;25.63;22.98;;;;;;;8.47;100.00;99596.56;2072813;28;20665;-75
2021/09/05 01:39:20;;;;;;;25.13;22.42;;;;;;;8.48;100.00;99598.16;2073202;28;20251;-75
2021/09/05 01:40:42;;;;;;;24.42;21.92;;;;;;;8.46;100.00;99594.19;2072725;28;20227;-75
2021/09/05 01:42:16;;;;;;;24.45;21.27;;;;;;;8.45;100.00;99597.91;2039925;28;20223;-75
2021/09/05 01:43:39;;;;;;;25.10;22.52;;;;;;;8.46;100.00;99605.59;2073454;28;20223;-75
2021/09/05 01:45:09;;;;;;;24.88;22.38;;;;;;;8.44;100.00;99602.44;2072079;28;20247;-75
2021/09/05 01:46:28;;;;;;;24.52;21.60;;;;;;;8.43;100.00;99598.19;2072670;28;20244;-75
2021/09/05 01:47:48;;;;;;;27.40;22.40;;;;;;;8.42;100.00;99599.22;2073308;28;20223;-75
2021/09/05 01:49:08;;;;;;;26.58;22.75;;;;;;;8.42;100.00;99596.56;2072791;28;20228;-75
2021/09/05 01:50:28;;;;;;;24.00;21.58;;;;;;;8.42;100.00;99599.22;2073425;28;20232;-75
2021/09/05 01:51:50;;;;;;;24.35;21.85;;;;;;;8.40;100.00;99598.69;2073200;28;20239;-75
2021/09/05 01:53:09;;;;;;;24.20;21.80;;;;;;;8.38;100.00;99598.19;2079601;28;20223;-75
2021/09/05 01:54:43;;;;;;;24.10;21.13;;;;;;;8.40;100.00;99601.34;2072313;28;20224;-75
2021/09/05 01:56:05;;;;;;;24.52;21.90;;;;;;;8.38;100.00;99600.84;2075071;28;20752;-75
2021/09/05 01:57:25;;;;;;;25.15;22.08;;;;;;;8.40;100.00;99604.00;2078163;28;20231;-75
2021/09/05 01:58:46;;;;;;;23.30;20.85;;;;;;;8.40;100.00;99611.19;2073383;28;20307;-75
2021/09/05 02:00:08;;;;;;;23.83;21.35;;;;;;;8.40;100.00;99603.22;2073451;28;20220;-75
2021/09/05 02:01:29;;;;;;;22.88;20.58;;;;;;;8.40;100.00;99606.66;2072201;28;20228;-75
2021/09/05 02:02:51;;;;;;;24.17;21.27;;;;;;;8.40;100.00;99603.22;2072699;28;20255;-75
2021/09/05 02:04:21;;;;;;;24.45;21.95;;;;;;;8.40;100.00;99612.00;2059669;28;20247;-75
2021/09/05 02:05:43;;;;;;;23.85;21.40;;;;;;;8.40;100.00;99608.53;2072866;28;20302;-75
2021/09/05 02:07:03;;;;;;;27.35;22.55;;;;;;;8.39;100.00;99606.94;2073139;28;20666;-75
2021/09/05 02:08:28;;;;;;;23.98;21.60;;;;;;;8.39;100.00;99601.63;2072741;28;20698;-75
2021/09/05 02:10:06;;;;;;;23.73;21.23;;;;;;;8.40;100.00;99603.22;2048264;28;20226;-76
2021/09/05 02:11:31;;;;;;;26.30;21.05;;;;;;;8.36;100.00;99602.97;2040499;29;20704;-75
2021/09/05 02:13:03;;;;;;;24.85;20.80;;;;;;;8.38;100.00;99608.81;2068737;28;20634;-75
2021/09/05 02:14:23;;;;;;;22.88;20.65;;;;;;;8.36;100.00;99600.31;2072543;28;20595;-74
2021/09/05 02:15:49;;;;;;;32.50;21.08;;;;;;;8.35;100.00;99603.25;2075771;28;20307;-75
2021/09/05 02:17:18;;;;;;;23.20;20.90;;;;;;;8.33;100.00;99611.44;2072629;28;20614;-75
2021/09/05 02:18:39;;;;;;;25.95;21.60;;;;;;;8.34;100.00;99617.53;2071972;28;20220;-76
2021/09/05 02:20:16;;;;;;;23.35;20.95;;;;;;;8.33;100.00;99618.59;2068240;28;20226;-75
2021/09/05 02:21:38;;;;;;;23.15;21.05;;;;;;;8.33;100.00;99622.06;2074963;28;20234;-76
2021/09/05 02:23:09;;;;;;;24.33;21.08;;;;;;;8.33;100.00;99623.94;2055515;28;20232;-75
2021/09/05 02:24:27;;;;;;;23.52;20.98;;;;;;;8.33;100.00;99626.59;2080605;28;20642;-75
2021/09/05 02:25:58;;;;;;;26.65;22.55;;;;;;;8.32;100.00;99617.00;2059471;28;20309;-75
2021/09/05 02:27:19;;;;;;;23.50;21.10;;;;;;;8.33;100.00;99623.94;2080886;28;20629;-75
2021/09/05 02:28:19;;;;;;;25.30;22.38;;;;;;;8.33;100.00;99622.06;2080825;28;20297;-75
2021/09/05 02:29:41;;;;;;;24.40;22.08;;;;;;;8.33;100.00;99624.72;2073018;28;20223;-75
2021/09/05 02:31:13;;;;;;;23.92;21.42;;;;;;;8.31;100.00;99616.22;2063448;28;20232;-75
2021/09/05 02:32:41;;;;;;;24.27;21.80;;;;;;;8.27;100.00;99619.69;2056844;28;20233;-75
2021/09/05 02:34:01;;;;;;;24.10;21.60;;;;;;;8.28;100.00;99622.09;2072844;28;20256;-75
2021/09/05 02:35:31;;;;;;;23.75;21.48;;;;;;;8.26;100.00;99626.88;2071998;28;20789;-76
2021/09/05 02:36:57;;;;;;;24.88;22.38;;;;;;;8.22;100.00;99621.28;2066861;28;20228;-75
2021/09/05 02:38:20;;;;;;;23.92;21.48;;;;;;;8.23;100.00;99619.41;2071987;28;20290;-75
2021/09/05 02:39:41;;;;;;;24.60;22.10;;;;;;;8.21;100.00;99624.22;2066192;28;20234;-75
2021/09/05 02:40:44;;;;;;;24.27;21.80;;;;;;;8.21;100.00;99637.50;2072439;28;20228;-75
2021/09/05 02:42:06;;;;;;;23.55;21.15;;;;;;;8.18;100.00;99636.19;2072689;28;20223;-75
2021/09/05 02:43:28;;;;;;;23.67;21.27;;;;;;;8.16;100.00;99624.19;2062403;28;20560;-75
2021/09/05 02:44:48;;;;;;;24.48;21.90;;;;;;;8.14;100.00;99621.81;2081457;28;20665;-76
2021/09/05 02:46:16;;;;;;;23.48;21.17;;;;;;;8.13;100.00;99624.75;2042971;28;20226;-75
2021/09/05 02:47:53;;;;;;;23.20;20.90;;;;;;;8.10;100.00;99634.03;2064313;28;20224;-76
2021/09/05 02:49:12;;;;;;;23.92;21.42;;;;;;;8.10;100.00;99627.94;2064822;28;20228;-75
2021/09/05 02:50:37;;;;;;;24.92;21.85;;;;;;;8.09;100.00;99621.81;2072055;28;20224;-75
2021/09/05 02:52:14;;;;;;;24.00;21.50;;;;;;;8.15;100.00;99636.69;2075469;28;20227;-75
2021/09/05 02:53:41;;;;;;;24.05;21.35;;;;;;;8.10;100.00;99634.03;2082165;28;20245;-75
2021/09/05 02:54:59;;;;;;;27.50;22.27;;;;;;;8.09;100.00;99629.00;2073345;28;20247;-75
2021/09/05 02:56:39;;;;;;;24.35;21.80;;;;;;;8.16;100.00;99632.97;2070016;28;20679;-75
2021/09/05 02:58:02;;;;;;;24.70;21.85;;;;;;;8.16;100.00;99632.97;2075890;28;20219;-76
2021/09/05 02:59:24;;;;;;;24.58;21.98;;;;;;;8.13;100.00;99628.19;2072455;28;20278;-76
2021/09/05 03:00:46;;;;;;;23.60;21.30;;;;;;;8.09;100.00;99629.78;2072467;28;20662;-75
2021/09/05 03:02:05;;;;;;;24.48;21.13;;;;;;;8.07;100.00;99629.25;2072769;28;20256;-75
2021/09/05 03:03:30;;;;;;;23.85;21.48;;;;;;;8.06;100.00;99622.34;2066732;28;20228;-75
2021/09/05 03:04:45;;;;;;;22.75;20.65;;;;;;;8.01;100.00;99625.00;2080157;28;20245;-75
2021/09/05 03:06:07;;;;;;;24.88;22.38;;;;;;;8.03;100.00;99630.06;2076695;28;20299;-75
2021/09/05 03:07:34;;;;;;;24.17;21.33;;;;;;;7.99;100.00;99626.31;2049520;28;20656;-75
2021/09/05 03:09:08;;;;;;;23.70;21.17;;;;;;;7.96;100.00;99621.53;2072087;28;20675;-75
2021/09/05 03:10:27;;;;;;;27.60;22.30;;;;;;;7.93;100.00;99623.66;2072767;28;20224;-75
2021/09/05 03:11:48;;;;;;;23.92;21.33;;;;;;;7.89;100.00;99625.25;2072856;28;20219;-75
2021/09/05 03:13:11;;;;;;;25.77;21.52;;;;;;;7.87;100.00;99623.91;2071695;28;20224;-75
2021/09/05 03:14:32;;;;;;;23.38;21.00;;;;;;;7.86;100.00;99630.28;2063423;28;20767;-75
2021/09/05 03:16:07;;;;;;;28.92;21.60;;;;;;;7.82;100.00;99631.91;2071834;28;20223;-75
2021/09/05 03:17:47;;;;;;;24.85;22.20;;;;;;;7.80;100.00;99628.69;2051900;28;20311;-75
2021/09/05 03:19:26;;;;;;;24.38;21.73;;;;;;;7.76;100.00;99628.44;2054452;28;20226;-75
2021/09/05 03:20:51;;;;;;;25.02;21.75;;;;;;;7.76;100.00;99627.63;2047285;28;20268;-75
2021/09/05 03:22:09;;;;;;;23.77;21.35;;;;;;;7.73;100.00;99626.31;2041389;28;20265;-74
2021/09/05 03:23:43;;;;;;;24.15;21.55;;;;;;;7.68;100.00;99626.28;2061293;28;20243;-75
2021/09/05 03:25:23;;;;;;;25.10;22.35;;;;;;;7.65;100.00;99627.63;2043924;28;20230;-74
2021/09/05 03:26:57;;;;;;;24.83;22.15;;;;;;;7.60;100.00;99632.09;2033662;28;20223;-75
2021/09/05 03:28:18;;;;;;;24.85;22.30;;;;;;;7.57;100.00;99630.78;2047366;28;20230;-75
2021/09/05 03:29:40;;;;;;;26.98;22.85;;;;;;;7.54;100.00;99631.28;2036593;28;20233;-75
2021/09/05 03:31:18;;;;;;;24.40;21.77;;;;;;;7.54;100.00;99643.75;2037170;28;20230;-75
2021/09/05 03:32:36;;;;;;;24.40;21.83;;;;;;;7.53;100.00;99644.81;2039607;28;20286;-74
2021/09/05 03:33:58;;;;;;;23.73;21.42;;;;;;;7.51;100.00;99641.63;2062793;28;20255;-75
2021/09/05 03:35:26;;;;;;;24.13;21.83;;;;;;;7.53;100.00;99639.53;2072187;28;20570;-75
2021/09/05 03:36:41;;;;;;;23.95;21.58;;;;;;;7.60;100.00;99645.38;2079314;28;20305;-75
2021/09/05 03:37:59;;;;;;;25.20;22.25;;;;;;;7.56;100.00;99642.47;2071541;28;20697;-74
2021/09/05 03:39:18;;;;;;;23.48;21.05;;;;;;;7.56;100.00;99652.28;2071689;28;20219;-75
2021/09/05 03:40:46;;;;;;;26.77;22.27;;;;;;;7.59;100.00;99652.56;2071189;28;20234;-75
2021/09/05 03:42:05;;;;;;;24.55;21.67;;;;;;;7.56;100.00;99644.31;2066077;28;20268;-75
2021/09/05 03:43:30;;;;;;;29.80;22.70;;;;;;;7.57;100.00;99656.53;2057886;28;20220;-75
2021/09/05 03:45:05;;;;;;;28.27;22.25;;;;;;;7.55;100.00;99651.47;2071898;28;20220;-75
2021/09/05 03:46:26;;;;;;;30.33;22.90;;;;;;;7.53;100.00;99653.59;2071959;28;20235;-75
2021/09/05 03:48:00;;;;;;;25.08;22.50;;;;;;;7.54;100.00;99654.38;2054801;28;20225;-75
2021/09/05 03:49:22;;;;;;;26.15;23.48;;;;;;;7.52;100.00;99645.88;2065040;28;20251;-75
2021/09/05 03:50:23;;;;;;;24.50;21.90;;;;;;;7.52;100.00;99654.66;2071076;28;20235;-75
2021/09/05 03:51:26;;;;;;;25.38;22.70;;;;;;;7.55;100.00;99650.66;2063041;28;20239;-75
2021/09/05 03:52:28;;;;;;;25.42;22.75;;;;;;;7.54;100.00;99651.72;2063119;28;20239;-75
2021/09/05 03:53:33;;;;;;;32.35;23.98;;;;;;;7.53;100.00;99658.09;2064069;28;20294;-75
2021/09/05 03:54:34;;;;;;;25.13;22.50;;;;;;;7.49;100.00;99649.88;2063935;28;20684;-75
2021/09/05 03:55:37;;;;;;;26.60;23.50;;;;;;;7.51;100.00;99654.91;2071783;28;20554;-74
2021/09/05 03:56:38;;;;;;;32.47;23.80;;;;;;;7.51;100.00;99658.38;2071632;28;20239;-75
2021/09/05 03:57:40;;;;;;;25.77;23.03;;;;;;;7.50;100.00;99653.31;2071753;28;20228;-75
2021/09/05 03:58:41;;;;;;;25.00;22.45;;;;;;;7.50;100.00;99655.97;2063621;28;20229;-74
2021/09/05 03:59:43;;;;;;;29.85;23.73;;;;;;;7.48;100.00;99658.91;2063796;28;20233;-75
2021/09/05 04:00:50;;;;;;;24.48;21.90;;;;;;;7.46;100.00;99660.19;2072764;28;20220;-75
2021/09/05 04:01:54;;;;;;;24.90;22.40;;;;;;;7.45;100.00;99663.91;2071971;28;20594;-75
2021/09/05 04:02:59;;;;;;;25.17;22.63;;;;;;;7.44;100.00;99663.13;2071450;28;20223;-75
2021/09/05 04:04:01;;;;;;;26.97;22.20;;;;;;;7.42;100.00;99661.78;2071488;28;20230;-75
2021/09/05 04:05:02;;;;;;;23.85;21.48;;;;;;;7.44;100.00;99660.47;2071758;28;20678;-75
2021/09/05 04:06:03;;;;;;;24.93;21.93;;;;;;;7.44;100.00;99668.44;2071701;28;20587;-75
2021/09/05 04:07:04;;;;;;;25.48;22.73;;;;;;;7.44;100.00;99663.13;2080045;28;20218;-75
2021/09/05 04:08:16;;;;;;;24.73;21.75;;;;;;;7.44;100.00;99667.63;2072663;28;20228;-75
2021/09/05 04:10:08;;;;;;;24.77;22.15;;;;;;;7.40;100.00;99666.56;2072214;28;20318;-75
2021/09/05 04:10:39;;;;;;;26.75;21.40;;;;;;;7.45;100.00;99674.53;2070788;28;20339;-75
2021/09/05 04:11:40;;;;;;;24.10;21.58;;;;;;;7.44;100.00;99668.44;2071324;28;20271;-75
2021/09/05 04:12:43;;;;;;;26.30;22.23;;;;;;;7.45;100.00;99677.97;2063507;28;20308;-75
2021/09/05 04:13:43;;;;;;;27.08;22.42;;;;;;;7.44;100.00;99679.03;2063738;28;20762;-75
2021/09/05 04:14:45;;;;;;;25.07;22.57;;;;;;;7.47;100.00;99681.19;2071854;28;20609;-75
2021/09/05 04:15:46;;;;;;;24.58;22.13;;;;;;;7.47;100.00;99677.72;2071725;28;20244;-75
2021/09/05 04:16:48;;;;;;;24.23;21.60;;;;;;;7.46;100.00;99678.78;2071778;28;20713;-74
2021/09/05 04:17:50;;;;;;;24.80;22.33;;;;;;;7.45;100.00;99679.84;2071096;28;20303;-74
2021/09/05 04:18:51;;;;;;;25.58;23.08;;;;;;;7.46;100.00;99681.44;2071760;28;20224;-75
2021/09/05 04:19:52;;;;;;;24.60;22.02;;;;;;;7.48;100.00;99684.66;2072011;28;20220;-75
2021/09/05 04:20:53;;;;;;;24.87;22.20;;;;;;;7.47;100.00;99683.03;2072370;28;20234;-75
2021/09/05 04:22:03;;;;;;;24.63;22.13;;;;;;;7.47;100.00;99680.38;2072330;28;20262;-75
2021/09/05 04:23:05;;;;;;;26.00;23.20;;;;;;;7.49;100.00;99686.25;2072408;28;20599;-75
2021/09/05 04:24:05;;;;;;;25.70;22.98;;;;;;;7.51;100.00;99689.44;2071489;28;20228;-75
2021/09/05 04:25:08;;;;;;;25.03;22.47;;;;;;;7.49;100.00;99681.72;2070753;28;20230;-75
2021/09/05 04:26:09;;;;;;;25.52;22.92;;;;;;;7.52;100.00;99691.03;2071015;28;20255;-75
2021/09/05 04:27:10;;;;;;;27.73;22.93;;;;;;;7.52;100.00;99691.03;2071566;28;20232;-75
2021/09/05 04:28:12;;;;;;;26.42;23.63;;;;;;;7.52;100.00;99691.03;2072188;28;20231;-74
2021/09/05 04:29:14;;;;;;;27.35;24.35;;;;;;;7.52;100.00;99693.69;2072262;28;20683;-75
2021/09/05 04:30:16;;;;;;;27.30;24.42;;;;;;;7.51;100.00;99700.84;2072454;28;20228;-75
2021/09/05 04:31:17;;;;;;;26.05;23.35;;;;;;;7.52;100.00;99691.03;2071466;28;20216;-75
2021/09/05 04:32:20;;;;;;;35.23;23.77;;;;;;;7.52;100.00;99691.03;2071641;28;20244;-75
2021/09/05 04:33:22;;;;;;;25.38;22.88;;;;;;;7.54;100.00;99695.00;2071562;28;20275;-74
2021/09/05 04:34:23;;;;;;;26.60;22.98;;;;;;;7.55;100.00;99703.78;2071152;28;20254;-75
2021/09/05 04:35:24;;;;;;;25.20;22.67;;;;;;;7.56;100.00;99694.78;2070973;28;20319;-75
2021/09/05 04:36:26;;;;;;;25.47;22.90;;;;;;;7.57;100.00;99696.38;2063026;28;20232;-75
2021/09/05 04:37:27;;;;;;;25.75;23.05;;;;;;;7.57;100.00;99701.69;2071664;28;20289;-75
2021/09/05 04:38:29;;;;;;;25.53;22.83;;;;;;;7.59;100.00;99710.97;2071202;28;20227;-75
2021/09/05 04:39:29;;;;;;;31.20;23.92;;;;;;;7.61;100.00;99705.41;2071375;28;20262;-75
2021/09/05 04:40:31;;;;;;;27.03;24.13;;;;;;;7.62;100.00;99707.78;2071598;28;20230;-75
2021/09/05 04:41:32;;;;;;;32.53;24.55;;;;;;;7.65;100.00;99703.84;2072274;28;20216;-76
2021/09/05 04:42:36;;;;;;;28.17;25.08;;;;;;;7.67;100.00;99700.91;2071456;28;20286;-75
2021/09/05 04:43:36;;;;;;;27.48;24.52;;;;;;;7.71;100.00;99709.94;2071400;28;20224;-75
2021/09/05 04:44:39;;;;;;;26.53;23.73;;;;;;;7.73;100.00;99711.31;2072463;28;20286;-75
2021/09/05 04:45:40;;;;;;;26.85;23.98;;;;;;;7.77;100.00;99708.91;2072188;28;20223;-75
2021/09/05 04:46:42;;;;;;;26.23;23.57;;;;;;;7.82;100.00;99709.72;2072236;28;20275;-75
2021/09/05 04:47:42;;;;;;;26.27;23.48;;;;;;;7.85;100.00;99709.19;2072332;28;20745;-75
2021/09/05 04:48:45;;;;;;;26.40;23.20;;;;;;;7.88;100.00;99713.19;2079703;28;20554;-75
2021/09/05 04:49:49;;;;;;;26.80;23.55;;;;;;;7.97;100.00;99713.47;2071175;28;20224;-75
2021/09/05 04:50:51;;;;;;;25.67;23.08;;;;;;;8.04;100.00;99716.69;2071917;28;20694;-75
2021/09/05 04:51:52;;;;;;;29.00;22.92;;;;;;;8.08;100.00;99715.06;2078994;28;20220;-75
2021/09/05 04:52:54;;;;;;;30.87;24.07;;;;;;;8.11;100.00;99720.69;2072223;28;20220;-75
2021/09/05 04:53:54;;;;;;;27.15;24.05;;;;;;;8.17;100.00;99718.84;2072261;28;20223;-75
2021/09/05 04:54:56;;;;;;;26.47;23.70;;;;;;;8.19;100.00;99711.41;2079739;28;20243;-75
2021/09/05 04:55:57;;;;;;;26.60;23.80;;;;;;;8.25;100.00;99715.63;2071118;28;20358;-75
2021/09/05 04:56:59;;;;;;;26.10;23.27;;;;;;;8.30;100.00;99714.84;2071583;28;20219;-74
2021/09/05 04:58:01;;;;;;;26.30;23.60;;;;;;;8.34;100.00;99715.91;2072327;28;20234;-75
2021/09/05 04:59:03;;;;;;;25.65;23.02;;;;;;;8.40;100.00;99713.03;2070931;28;20224;-75
2021/09/05 05:00:05;;;;;;;25.80;23.20;;;;;;;8.50;100.00;99717.53;2071749;28;20690;-74
2021/09/05 05:01:06;;;;;;;25.98;23.52;;;;;;;8.54;100.00;99723.94;2072266;28;20578;-75
2021/09/05 05:02:07;;;;;;;25.48;22.73;;;;;;;8.57;100.00;99714.63;2072155;28;20227;-75
2021/09/05 05:03:08;;;;;;;25.67;23.00;;;;;;;8.60;100.00;99714.09;2073805;28;20694;-75
2021/09/05 05:04:13;;;;;;;25.85;23.08;;;;;;;8.66;100.00;99715.69;2081080;28;20313;-75
2021/09/05 05:05:15;;;;;;;26.13;23.40;;;;;;;8.69;100.00;99713.31;2073072;28;20556;-75
2021/09/05 05:06:15;;;;;;;26.88;23.05;;;;;;;8.73;100.00;99718.88;2073029;28;20302;-75
2021/09/05 05:07:17;;;;;;;26.07;23.20;;;;;;;8.77;100.00;99717.28;2073893;28;20224;-75
2021/09/05 05:08:18;;;;;;;28.65;22.98;;;;;;;8.80;100.00;99716.75;2073749;28;20216;-75
2021/09/05 05:09:19;;;;;;;26.17;23.47;;;;;;;8.89;100.00;99720.47;2073737;28;20231;-75
2021/09/05 05:10:21;;;;;;;26.27;23.65;;;;;;;8.94;100.00;99714.31;2072803;28;20319;-75
2021/09/05 05:11:22;;;;;;;25.58;23.05;;;;;;;8.98;100.00;99718.06;2072681;28;20581;-75
2021/09/05 05:12:24;;;;;;;27.35;23.52;;;;;;;9.01;100.00;99720.19;2073664;28;20262;-75
2021/09/05 05:13:25;;;;;;;26.27;23.67;;;;;;;9.02;100.00;99719.91;2080872;28;20361;-75
2021/09/05 05:14:26;;;;;;;28.73;23.37;;;;;;;9.04;100.00;99717.78;2072946;28;20231;-75
2021/09/05 05:15:27;;;;;;;26.17;23.58;;;;;;;9.05;100.00;99719.38;2064835;28;20229;-75
2021/09/05 05:16:28;;;;;;;25.70;22.53;;;;;;;9.11;100.00;99719.34;2073046;28;20230;-75
2021/09/05 05:17:29;;;;;;;25.15;22.73;;;;;;;9.12;100.00;99724.44;2073862;28;20230;-75
2021/09/05 05:18:31;;;;;;;25.50;22.93;;;;;;;9.12;100.00;99728.94;2081306;28;20712;-75
2021/09/05 05:19:33;;;;;;;27.50;24.13;;;;;;;9.14;100.00;99732.16;2073169;28;20639;-75
2021/09/05 05:20:35;;;;;;;24.45;21.95;;;;;;;9.17;100.00;99728.94;2073399;28;20516;-75
2021/09/05 05:21:35;;;;;;;27.65;22.92;;;;;;;9.18;100.00;99727.88;2081382;28;20608;-75
2021/09/05 05:22:37;;;;;;;24.93;22.30;;;;;;;9.16;100.00;99730.81;2073936;28;20250;-75
2021/09/05 05:23:38;;;;;;;24.73;22.33;;;;;;;9.19;100.00;99732.13;2073601;28;20247;-75
2021/09/05 05:24:43;;;;;;;25.27;22.83;;;;;;;9.18;100.00;99730.53;2073044;28;20235;-75
2021/09/05 05:25:46;;;;;;;25.13;22.55;;;;;;;9.21;100.00;99729.97;2065576;28;20616;-75
2021/09/05 05:26:47;;;;;;;24.55;22.15;;;;;;;9.27;100.00;99723.56;2073489;28;20274;-75